NKS257 TIST-KFLL
Flight info
| Callsign | NKS257 |
|---|---|
| Flight time | N/A |
| Altitude | 38000 |
| Route | PALCO7 PALCO RTE6 SJU ACONY Y280 SAPPO Y399 CADGE Y399 ZQA OLAHS3 |
| Aircraft | A321/M-SDE2E3FGHIRWXY/L |
Departure
| Time | 2026-04-28 23:56 |
|---|---|
| Airport | Cyril E. King Airport (TIST) |
Arrival
| Time | N/A |
|---|---|
| Airport | Fort Lauderdale Hollywood International Airport (KFLL) |
| Time | Latitude | Longitude | Altitude | Speed | Heading |
|---|---|---|---|---|---|
| 2026-04-28 23:35 | 18.33544 | -64.97337 | 28 ft | 0 kts | 124° |
| 2026-04-28 23:43 | 18.33549 | -64.97344 | 28 ft | 1 kts | 124° |
| 2026-04-28 23:44 | 18.33555 | -64.97353 | 27 ft | 2 kts | 115° |
| 2026-04-28 23:44 | 18.33557 | -64.97369 | 27 ft | 2 kts | 81° |
| 2026-04-28 23:44 | 18.33552 | -64.97384 | 26 ft | 2 kts | 51° |
| 2026-04-28 23:44 | 18.33540 | -64.97394 | 26 ft | 2 kts | 22° |
| 2026-04-28 23:45 | 18.33529 | -64.97397 | 26 ft | 0 kts | 0° |
| 2026-04-28 23:45 | 18.33522 | -64.97396 | 26 ft | 0 kts | 356° |
| 2026-04-28 23:45 | 18.33521 | -64.97396 | 26 ft | 0 kts | 357° |
| 2026-04-28 23:47 | 18.33525 | -64.97396 | 26 ft | 2 kts | 356° |
| 2026-04-28 23:47 | 18.33573 | -64.97400 | 26 ft | 9 kts | 353° |
| 2026-04-28 23:47 | 18.33617 | -64.97440 | 26 ft | 9 kts | 280° |
| 2026-04-28 23:47 | 18.33615 | -64.97516 | 24 ft | 11 kts | 267° |
| 2026-04-28 23:48 | 18.33611 | -64.97607 | 23 ft | 12 kts | 267° |
| 2026-04-28 23:48 | 18.33607 | -64.97703 | 22 ft | 13 kts | 267° |
| 2026-04-28 23:48 | 18.33603 | -64.97802 | 22 ft | 13 kts | 268° |
| 2026-04-28 23:48 | 18.33599 | -64.97900 | 21 ft | 13 kts | 268° |
| 2026-04-28 23:49 | 18.33595 | -64.98000 | 21 ft | 13 kts | 267° |
| 2026-04-28 23:49 | 18.33591 | -64.98099 | 21 ft | 13 kts | 267° |
| 2026-04-28 23:49 | 18.33586 | -64.98192 | 21 ft | 1 kts | 267° |
| 2026-04-28 23:50 | 18.33586 | -64.98199 | 21 ft | 5 kts | 267° |
| 2026-04-28 23:50 | 18.33584 | -64.98248 | 21 ft | 7 kts | 268° |
| 2026-04-28 23:50 | 18.33584 | -64.98254 | 22 ft | 2 kts | 268° |
| 2026-04-28 23:50 | 18.33583 | -64.98273 | 21 ft | 0 kts | 270° |
| 2026-04-28 23:52 | 18.33589 | -64.98296 | 21 ft | 6 kts | 292° |
| 2026-04-28 23:52 | 18.33595 | -64.98307 | 21 ft | 0 kts | 305° |
| 2026-04-28 23:53 | 18.33596 | -64.98309 | 21 ft | 2 kts | 309° |
| 2026-04-28 23:53 | 18.33635 | -64.98328 | 21 ft | 8 kts | 354° |
| 2026-04-28 23:53 | 18.33686 | -64.98315 | 21 ft | 8 kts | 77° |
| 2026-04-28 23:53 | 18.33687 | -64.98305 | 21 ft | 0 kts | 83° |
| 2026-04-28 23:55 | 18.33697 | -64.98176 | 22 ft | 42 kts | 88° |
| 2026-04-28 23:55 | 18.33717 | -64.97688 | 22 ft | 89 kts | 87° |
| 2026-04-28 23:56 | 18.33751 | -64.96887 | 32 ft | 130 kts | 88° |
| 2026-04-28 23:56 | 18.33798 | -64.95757 | 144 ft | 167 kts | 90° |
| 2026-04-28 23:56 | 18.33632 | -64.94576 | 688 ft | 167 kts | 110° |
| 2026-04-28 23:56 | 18.33061 | -64.93436 | 982 ft | 187 kts | 128° |
| 2026-04-28 23:57 | 18.32088 | -64.92480 | 1487 ft | 198 kts | 150° |
| 2026-04-28 23:57 | 18.30733 | -64.92237 | 2050 ft | 208 kts | 192° |
| 2026-04-28 23:57 | 18.29470 | -64.93078 | 2419 ft | 227 kts | 226° |
| 2026-04-28 23:57 | 18.28474 | -64.94460 | 2587 ft | 242 kts | 234° |
| 2026-04-28 23:58 | 18.27530 | -64.95986 | 2823 ft | 255 kts | 236° |
| 2026-04-28 23:58 | 18.26555 | -64.97608 | 3063 ft | 267 kts | 236° |
| 2026-04-28 23:58 | 18.25652 | -64.99354 | 3285 ft | 281 kts | 251° |
| 2026-04-28 23:58 | 18.25451 | -65.01444 | 3649 ft | 289 kts | 276° |
| 2026-04-28 23:59 | 18.25784 | -65.03499 | 4187 ft | 289 kts | 282° |
| 2026-04-28 23:59 | 18.26147 | -65.05256 | 4600 ft | 291 kts | 282° |
| 2026-04-28 23:59 | 18.26559 | -65.07329 | 5069 ft | 293 kts | 281° |
| 2026-04-28 23:59 | 18.26942 | -65.09446 | 5548 ft | 295 kts | 280° |
| 2026-04-29 00:00 | 18.27294 | -65.11534 | 6012 ft | 297 kts | 280° |
| 2026-04-29 00:00 | 18.27641 | -65.13692 | 6482 ft | 299 kts | 279° |
| 2026-04-29 00:00 | 18.27984 | -65.15876 | 6949 ft | 301 kts | 279° |
| 2026-04-29 00:00 | 18.28321 | -65.18040 | 7405 ft | 303 kts | 279° |
| 2026-04-29 00:01 | 18.28663 | -65.20240 | 7861 ft | 305 kts | 279° |
| 2026-04-29 00:01 | 18.29004 | -65.22441 | 8310 ft | 306 kts | 279° |
| 2026-04-29 00:01 | 18.29397 | -65.24661 | 8753 ft | 308 kts | 282° |
| 2026-04-29 00:01 | 18.29849 | -65.26875 | 9191 ft | 310 kts | 283° |
| 2026-04-29 00:02 | 18.30315 | -65.29108 | 9622 ft | 312 kts | 283° |
| 2026-04-29 00:02 | 18.30781 | -65.31345 | 10049 ft | 313 kts | 283° |
| 2026-04-29 00:02 | 18.31255 | -65.33629 | 10352 ft | 320 kts | 283° |
| 2026-04-29 00:02 | 18.31736 | -65.35942 | 10538 ft | 330 kts | 283° |
| 2026-04-29 00:03 | 18.32237 | -65.38361 | 10731 ft | 340 kts | 283° |
| 2026-04-29 00:03 | 18.32748 | -65.40838 | 10918 ft | 350 kts | 283° |
| 2026-04-29 00:03 | 18.33277 | -65.43398 | 11105 ft | 360 kts | 283° |
| 2026-04-29 00:03 | 18.33815 | -65.46010 | 11285 ft | 370 kts | 283° |
| 2026-04-29 00:04 | 18.34370 | -65.48708 | 11464 ft | 379 kts | 283° |
| 2026-04-29 00:04 | 18.34941 | -65.51482 | 11636 ft | 388 kts | 283° |
| 2026-04-29 00:04 | 18.35522 | -65.54311 | 11865 ft | 395 kts | 283° |
| 2026-04-29 00:04 | 18.36105 | -65.57153 | 12237 ft | 398 kts | 283° |
| 2026-04-29 00:05 | 18.36689 | -65.60007 | 12648 ft | 399 kts | 283° |
| 2026-04-29 00:05 | 18.37280 | -65.62892 | 13035 ft | 401 kts | 283° |
| 2026-04-29 00:05 | 18.37872 | -65.65780 | 13403 ft | 404 kts | 283° |
| 2026-04-29 00:05 | 18.38464 | -65.68677 | 13765 ft | 406 kts | 283° |
| 2026-04-29 00:06 | 18.39065 | -65.71626 | 14128 ft | 408 kts | 283° |
| 2026-04-29 00:06 | 18.39657 | -65.74530 | 14477 ft | 410 kts | 283° |
| 2026-04-29 00:06 | 18.40264 | -65.77507 | 14831 ft | 412 kts | 283° |
| 2026-04-29 00:06 | 18.40866 | -65.80463 | 15170 ft | 414 kts | 283° |
| 2026-04-29 00:07 | 18.41470 | -65.83427 | 15504 ft | 415 kts | 283° |
| 2026-04-29 00:07 | 18.42079 | -65.86417 | 15836 ft | 417 kts | 283° |
| 2026-04-29 00:07 | 18.42685 | -65.89397 | 16160 ft | 419 kts | 283° |
| 2026-04-29 00:07 | 18.43296 | -65.92401 | 16479 ft | 421 kts | 283° |
| 2026-04-29 00:08 | 18.43926 | -65.95422 | 16791 ft | 423 kts | 286° |
| 2026-04-29 00:08 | 18.44964 | -65.98323 | 17073 ft | 422 kts | 299° |
| 2026-04-29 00:08 | 18.46589 | -66.00920 | 17382 ft | 421 kts | 312° |
| 2026-04-29 00:08 | 18.48593 | -66.03110 | 17698 ft | 421 kts | 317° |
| 2026-04-29 00:09 | 18.50738 | -66.05260 | 17990 ft | 422 kts | 319° |
| 2026-04-29 00:09 | 18.52880 | -66.07383 | 18268 ft | 424 kts | 319° |
| 2026-04-29 00:09 | 18.55040 | -66.09534 | 18555 ft | 426 kts | 318° |